Terminal Aerodrome Forecast
Issued by NWS

Home | Current Version | Previous Version | Text Only | Print | Product List | Glossary On
Versions: 1 2 3 4 5 6 7 8 9 10 11 12 13 14 15 16 17
492
FTUS42 KGSP 182324
TAFAND
TAF
KAND 182324Z 1900/1924 10006KT P6SM SCT250
     FM190100 10005KT P6SM OVC035
     FM190300 08007KT P6SM -SHRA OVC020
     FM190500 08006KT 5SM -RA BR OVC010
     FM190900 07005KT 5SM BR OVC010 PROB30 1909/1913 3SM -RA BR
      OVC008
     FM191300 08005KT 5SM BR VCSH OVC005
     FM191800 09005KT 4SM BR OVC007=

USA.gov is the U.S. government's official web portal to all federal, state and local government web resources and services.